
Distance (Route):
Temperature : -48.6°C
Humidity : 0.8%
Pressure : 42.1hPa| Receiver | Frames | First received | Last received |
|---|---|---|---|
| DL1XH-west | 85 | 2026-09-04 12:48:20 | 2026-09-04 13:07:17 |
| DL1XH1-15 | 70 | 2026-09-04 12:50:38 | 2026-09-04 13:06:20 |
| DJ2DS-15 | 10 | 2026-09-04 12:54:52 | 2026-09-04 13:09:17 |
| Receiver | Date | Latitude | Longitude | Direction | Speed | Altitude | Climb | Temperature | Humidity | Pressure | Voltage | Killtimer | Uptime | BKT | XDATA |
|---|---|---|---|---|---|---|---|---|---|---|---|---|---|---|---|
| DJ2DS-15 | 2026-09-04 13:09:17 | 59.04602 | 6.96015 | 85° | 22km/h | 22043m | -38.0m/s | -48.6°C | 0.8% | 42.1hPa | 2.7V | 00:00:00 | 00:00:00 | 00:00:00 | |
| DJ2DS-15 | 2026-09-04 13:08:41 | 59.04554 | 6.95678 | 89° | 26km/h | 23303m | -40.2m/s | -50.4°C | 0.9% | 34.7hPa | 2.7V | 00:00:00 | 00:00:00 | 00:00:00 | |
| DL1XH-west | 2026-09-04 13:07:17 | 59.04544 | 6.95154 | 86° | 22km/h | 25847m | -45.3m/s | -48.6°C | 0.1% | 23.5hPa | 2.7V | 08:29:39 | 02:24:34 | 00:00:00 | |
| DJ2DS-15 | 2026-09-04 13:06:53 | 59.04561 | 6.94933 | 125° | 5km/h | 26886m | -44.7m/s | -47.7°C | 0.7% | 20.0hPa | 2.6V | 00:00:00 | 00:00:00 | 00:00:00 | |
| DL1XH1-15 | 2026-09-04 13:06:20 | 59.04612 | 6.94774 | 86° | 11km/h | 28601m | -49m/s | -48.1°C | 3.5% | 15.3hPa | 2.6V | 08:30:00 | 02:23:35 | 00:00:00 | |
| DL1XH-west | 2026-09-04 13:06:19 | 59.04612 | 6.94778 | 96° | 9km/h | 28553m | -48.4m/s | -48.3°C | 0.3% | 15.5hPa | 2.7V | 18:12:15 | 02:23:36 | 00:00:00 | |
| DJ2DS-15 | 2026-09-04 13:06:17 | 59.04612 | 6.94769 | 73° | 7km/h | 28651m | -49.8m/s | -47.8°C | 0.9% | 15.3hPa | 2.6V | 00:00:00 | 00:00:00 | 00:00:00 | |
| DL1XH1-15 | 2026-09-04 13:06:09 | 59.04605 | 6.94701 | 77° | 20km/h | 29341m | -51m/s | -46.6°C | 3.2% | 13.8hPa | 2.6V | 08:30:00 | 02:23:21 | 00:00:00 | |
| DL1XH-west | 2026-09-04 13:06:08 | 59.04609 | 6.94728 | 70° | 11km/h | 29129m | -55.3m/s | -46.6°C | 0% | 14.2hPa | 2.7V | 18:12:15 | 02:23:25 | 00:00:00 | |
| DL1XH1-15 | 2026-09-04 13:05:59 | 59.04591 | 6.94591 | 83° | 24km/h | 29822m | -50.3m/s | -43.8°C | 2.6% | 12.8hPa | 2.6V | 08:30:00 | 02:23:11 | 00:00:00 | |
| DL1XH-west | 2026-09-04 13:05:57 | 59.04594 | 6.94624 | 75° | 26km/h | 29676m | -47.2m/s | -44.4°C | 0% | 13hPa | 2.7V | 18:12:15 | 02:23:14 | 00:00:00 | |
| DL1XH-west | 2026-09-04 13:05:47 | 59.04592 | 6.94506 | 90° | 24km/h | 30158m | -46.7m/s | -43.5°C | 0% | 12.1hPa | 2.7V | 18:12:15 | 02:23:04 | 00:00:00 | |
| DL1XH1-15 | 2026-09-04 13:05:39 | 59.04567 | 6.94389 | 58° | 22km/h | 30603m | -31.9m/s | -43.5°C | 2.5% | 11.3hPa | 2.6V | 08:30:00 | 02:22:53 | 00:00:00 | |
| DL1XH-west | 2026-09-04 13:05:36 | 59.04564 | 6.94379 | 63° | 24km/h | 30635m | -33.2m/s | -43.4°C | 0% | 11.2hPa | 2.7V | 18:12:15 | 02:22:52 | 00:00:00 | |
| DL1XH1-15 | 2026-09-04 13:05:29 | 59.04532 | 6.94281 | 54° | 15km/h | 30668m | 4.5m/s | -43.4°C | 2.5% | 11.2hPa | 2.7V | 08:30:00 | 02:22:41 | 00:00:00 | |
| DL1XH-west | 2026-09-04 13:05:25 | 59.04532 | 6.94281 | 54° | 15km/h | 30668m | 4.5m/s | -43.4°C | 0% | 11.2hPa | 2.7V | 18:12:15 | 02:22:41 | 00:00:00 | |
| DL1XH1-15 | 2026-09-04 13:05:19 | 59.04517 | 6.94190 | 49° | 13km/h | 30615m | 5.8m/s | -43.6°C | 2.5% | 11.2hPa | 2.7V | 08:30:00 | 02:22:31 | 00:00:00 | |
| DL1XH-west | 2026-09-04 13:05:14 | 59.04517 | 6.94190 | 49° | 13km/h | 30615m | 5.8m/s | -43.6°C | 0% | 11.2hPa | 2.7V | 18:12:15 | 02:22:31 | 00:00:00 | |
| DL1XH1-15 | 2026-09-04 13:05:09 | 59.04482 | 6.94101 | 65° | 37km/h | 30563m | 4.5m/s | -44.2°C | 2.7% | 11.3hPa | 2.7V | 08:30:00 | 02:22:21 | 00:00:00 | |
| DL1XH-west | 2026-09-04 13:05:04 | 59.04481 | 6.94101 | 65° | 37km/h | 30563m | 4.5m/s | -44.2°C | 0% | 11.3hPa | 2.7V | 18:12:15 | 02:22:21 | 00:00:00 | |
| DL1XH1-15 | 2026-09-04 13:04:58 | 59.04434 | 6.93983 | 40° | 24km/h | 30504m | 4.7m/s | -44.5°C | 2.7% | 11.4hPa | 2.6V | 08:30:00 | 02:22:10 | 00:00:00 | |
| DL1XH-west | 2026-09-04 13:04:54 | 59.04439 | 6.93991 | 38° | 24km/h | 30510m | 5.1m/s | -44.6°C | 0% | 11.4hPa | 2.6V | 18:12:15 | 02:22:11 | 00:00:00 | |
| DL1XH1-15 | 2026-09-04 13:04:48 | 59.04402 | 6.93897 | 64° | 16km/h | 30452m | 5.5m/s | -44.5°C | 2.7% | 11.5hPa | 2.6V | 08:30:00 | 02:22:00 | 00:00:00 | |
| DL1XH-west | 2026-09-04 13:04:43 | 59.04402 | 6.93897 | 64° | 16km/h | 30452m | 5.5m/s | -44.5°C | 0% | 11.5hPa | 2.6V | 18:12:15 | 02:22:00 | 00:00:00 | |
| DL1XH1-15 | 2026-09-04 13:04:38 | 59.04397 | 6.93799 | 84° | 26km/h | 30400m | 4.2m/s | -44.5°C | 2.7% | 11.6hPa | 2.6V | 08:30:00 | 02:21:50 | 00:00:00 | |
| DL1XH-west | 2026-09-04 13:04:33 | 59.04397 | 6.93799 | 84° | 26km/h | 30400m | 4.2m/s | -44.5°C | 0% | 11.6hPa | 2.6V | 18:12:15 | 02:21:50 | 00:00:00 | |
| DJ2DS-15 | 2026-09-04 13:04:29 | 59.04391 | 6.93742 | 90° | 26km/h | 30374m | 5.8m/s | -44.4°C | 0.6% | 11.7hPa | 2.6V | 00:00:00 | 00:00:00 | 00:00:00 | |
| DL1XH1-15 | 2026-09-04 13:04:28 | 59.04398 | 6.93671 | 101° | 27km/h | 30346m | 4.3m/s | -44.4°C | 2.7% | 11.7hPa | 2.6V | 08:30:00 | 02:21:40 | 00:00:00 | |
| DL1XH-west | 2026-09-04 13:04:22 | 59.04400 | 6.93657 | 100° | 27km/h | 30341m | 3.5m/s | -44.4°C | 0% | 11.8hPa | 2.6V | 18:12:15 | 02:21:39 | 00:00:00 | |
| DL1XH1-15 | 2026-09-04 13:04:18 | 59.04405 | 6.93537 | 88° | 26km/h | 30295m | 5.4m/s | -44°C | 2.6% | 11.8hPa | 2.6V | 08:30:00 | 02:21:30 | 00:00:00 | |
| DL1XH-west | 2026-09-04 13:04:12 | 59.04405 | 6.93524 | 93° | 29km/h | 30290m | 4.8m/s | -44°C | 0% | 11.8hPa | 2.6V | 18:12:15 | 02:21:29 | 00:00:00 | |
| DL1XH1-15 | 2026-09-04 13:04:08 | 59.04422 | 6.93424 | 116° | 24km/h | 30244m | 4m/s | -44°C | 2.6% | 11.9hPa | 2.6V | 08:30:00 | 02:21:20 | 00:00:00 | |
| DL1XH-west | 2026-09-04 13:04:01 | 59.04424 | 6.93403 | 92° | 22km/h | 30235m | 5.8m/s | -44°C | 0% | 11.9hPa | 2.7V | 18:12:15 | 02:21:18 | 00:00:00 | |
| DL1XH1-15 | 2026-09-04 13:03:58 | 59.04416 | 6.93302 | 93° | 18km/h | 30195m | 4.7m/s | -44.1°C | 2.6% | 12hPa | 2.6V | 08:30:00 | 02:21:10 | 00:00:00 | |
| DL1XH-west | 2026-09-04 13:03:51 | 59.04417 | 6.93288 | 111° | 15km/h | 30186m | 4.2m/s | -44.2°C | 0% | 12hPa | 2.7V | 18:12:15 | 02:21:08 | 00:00:00 | |
| DL1XH1-15 | 2026-09-04 13:03:48 | 59.04434 | 6.93190 | 88° | 40km/h | 30145m | 6.1m/s | -44.4°C | 2.7% | 12.1hPa | 2.6V | 08:30:00 | 02:21:00 | 00:00:00 | |
| DL1XH-west | 2026-09-04 13:03:40 | 59.04432 | 6.93128 | 82° | 40km/h | 30131m | 4m/s | -44.3°C | 0% | 12.1hPa | 2.7V | 18:12:15 | 02:20:57 | 00:00:00 | |
| DL1XH1-15 | 2026-09-04 13:03:38 | 59.04429 | 6.93040 | 100° | 24km/h | 30097m | 4.1m/s | -44.3°C | 2.6% | 12.2hPa | 2.6V | 08:30:00 | 02:20:50 | 00:00:00 | |
| DL1XH-west | 2026-09-04 13:03:29 | 59.04431 | 6.92993 | 88° | 27km/h | 30076m | 5.6m/s | -44.3°C | 0% | 12.2hPa | 2.7V | 18:12:15 | 02:20:46 | 00:00:00 | |
| DL1XH1-15 | 2026-09-04 13:03:29 | 59.04428 | 6.92919 | 87° | 11km/h | 30046m | 4.8m/s | -44.4°C | 2.7% | 12.3hPa | 2.6V | 08:30:00 | 02:20:40 | 00:00:00 | |
| DL1XH-west | 2026-09-04 13:03:18 | 59.04433 | 6.92888 | 103° | 16km/h | 30021m | 5.5m/s | -44.3°C | 0% | 12.3hPa | 2.6V | 18:12:15 | 02:20:35 | 00:00:00 | |
| DL1XH-west | 2026-09-04 13:03:08 | 59.04420 | 6.92795 | 67° | 9km/h | 29970m | 4.9m/s | -44.7°C | 0% | 12.4hPa | 2.6V | 18:12:15 | 02:20:25 | 00:00:00 | |
| DL1XH1-15 | 2026-09-04 13:03:04 | 59.04414 | 6.92731 | 66° | 20km/h | 29926m | 6m/s | -44.7°C | 2.7% | 12.5hPa | 2.7V | 08:30:00 | 02:20:16 | 00:00:00 | |
| DL1XH-west | 2026-09-04 13:02:58 | 59.04412 | 6.92721 | 76° | 24km/h | 29920m | 5.5m/s | -44.7°C | 0% | 12.5hPa | 2.6V | 18:12:15 | 02:20:15 | 00:00:00 | |
| DL1XH-west | 2026-09-04 13:02:46 | 59.04395 | 6.92572 | 80° | 20km/h | 29850m | 5.5m/s | -44.6°C | 0% | 12.7hPa | 2.7V | 18:12:15 | 02:20:02 | 00:00:00 | |
| DJ2DS-15 | 2026-09-04 13:02:41 | 59.04388 | 6.92508 | 73° | 22km/h | 29823m | 6.0m/s | -44.7°C | 0.6% | 12.7hPa | 2.6V | 00:00:00 | 00:00:00 | 00:00:00 | |
| DL1XH1-15 | 2026-09-04 13:02:39 | 59.04383 | 6.92480 | 78° | 20km/h | 29806m | 5.5m/s | -44.8°C | 2.6% | 12.7hPa | 2.6V | 08:30:00 | 02:19:54 | 00:00:00 | |
| DL1XH-west | 2026-09-04 13:02:36 | 59.04382 | 6.92459 | 84° | 24km/h | 29795m | 4.9m/s | -44.9°C | 0% | 12.8hPa | 2.7V | 18:12:15 | 02:19:52 | 00:00:00 | |
| DL1XH1-15 | 2026-09-04 13:02:29 | 59.04369 | 6.92349 | 76° | 26km/h | 29746m | 6.2m/s | -45.8°C | 2.8% | 12.9hPa | 2.7V | 08:30:00 | 02:19:43 | 00:00:00 | |
| DL1XH-west | 2026-09-04 13:02:24 | 59.04365 | 6.92327 | 71° | 22km/h | 29735m | 4.9m/s | -45.9°C | 0% | 12.9hPa | 2.7V | 18:12:15 | 02:19:41 | 00:00:00 | |
| DL1XH1-15 | 2026-09-04 13:02:19 | 59.04354 | 6.92223 | 70° | 27km/h | 29691m | 5.3m/s | -46°C | 2.8% | 13hPa | 2.7V | 08:30:00 | 02:19:33 | 00:00:00 | |
| DL1XH-west | 2026-09-04 13:02:13 | 59.04347 | 6.92183 | 75° | 27km/h | 29673m | 4.8m/s | -46°C | 0% | 13hPa | 2.6V | 18:12:15 | 02:19:30 | 00:00:00 | |
| DL1XH1-15 | 2026-09-04 13:02:09 | 59.04335 | 6.92097 | 75° | 18km/h | 29622m | 6.2m/s | -46°C | 2.8% | 13.1hPa | 2.7V | 08:30:00 | 02:19:21 | 00:00:00 | |
| DL1XH-west | 2026-09-04 13:02:03 | 59.04333 | 6.92089 | 66° | 16km/h | 29616m | 5.9m/s | -46.1°C | 0% | 13.1hPa | 2.6V | 18:12:15 | 02:19:20 | 00:00:00 | |
| DL1XH1-15 | 2026-09-04 13:01:59 | 59.04315 | 6.92031 | 49° | 11km/h | 29565m | 4.3m/s | -46.4°C | 2.9% | 13.2hPa | 2.7V | 08:30:00 | 02:19:11 | 00:00:00 | |
| DL1XH-west | 2026-09-04 13:01:52 | 59.04312 | 6.92020 | 73° | 15km/h | 29552m | 6.3m/s | -46.5°C | 0% | 13.2hPa | 2.6V | 18:12:15 | 02:19:09 | 00:00:00 | |
| DL1XH1-15 | 2026-09-04 13:01:49 | 59.04294 | 6.91958 | 60° | 18km/h | 29504m | 4.9m/s | -46.6°C | 2.9% | 13.3hPa | 2.7V | 08:30:00 | 02:19:01 | 00:00:00 | |
| DL1XH-west | 2026-09-04 13:01:41 | 59.04287 | 6.91942 | 32° | 9km/h | 29485m | 5.6m/s | -46.6°C | 0% | 13.4hPa | 2.7V | 18:12:15 | 02:18:58 | 00:00:00 | |
| DJ2DS-15 | 2026-09-04 13:01:28 | 59.04262 | 6.91884 | 22° | 7km/h | 29409m | 5.9m/s | -47.3°C | 0.7% | 13.5hPa | 2.7V | 00:00:00 | 00:00:00 | 00:00:00 | |
| DL1XH1-15 | 2026-09-04 13:00:59 | 59.04256 | 6.91848 | 73° | 15km/h | 29210m | 5.3m/s | -47°C | 3% | 13.9hPa | 2.7V | 08:30:00 | 02:18:11 | 00:00:00 | |
| DL1XH-west | 2026-09-04 13:00:54 | 59.04256 | 6.91848 | 73° | 15km/h | 29210m | 5.3m/s | -47°C | 0% | 14hPa | 2.7V | 18:12:15 | 02:18:11 | 00:00:00 | |
| DL1XH1-15 | 2026-09-04 13:00:29 | 59.04256 | 6.91833 | 127° | 5km/h | 29042m | 5.5m/s | -46.9°C | 3% | 14.3hPa | 2.6V | 08:30:00 | 02:17:42 | 00:00:00 | |
| DL1XH1-15 | 2026-09-04 13:00:18 | 59.04272 | 6.91824 | 88° | 2km/h | 28972m | 5.9m/s | -46.8°C | 3% | 14.5hPa | 2.7V | 08:30:00 | 02:17:30 | 00:00:00 | |
| DL1XH-west | 2026-09-04 13:00:17 | 59.04273 | 6.91823 | 289° | 4km/h | 28984m | 5.6m/s | -46.8°C | 0% | 14.4hPa | 2.6V | 18:12:15 | 02:17:32 | 00:00:00 | |
| DL1XH1-15 | 2026-09-04 13:00:06 | 59.04287 | 6.91786 | 136° | 9km/h | 28907m | 5.7m/s | -46.9°C | 3% | 14.6hPa | 2.6V | 08:30:00 | 02:17:18 | 00:00:00 | |
| DL1XH-west | 2026-09-04 13:00:05 | 59.04281 | 6.91795 | 142° | 7km/h | 28923m | 6.2m/s | -46.8°C | 0% | 14.6hPa | 2.7V | 18:12:15 | 02:17:21 | 00:00:00 | |
| DL1XH1-15 | 2026-09-04 12:59:56 | 59.04292 | 6.91733 | 115° | 4km/h | 28853m | 4.9m/s | -46.8°C | 2.9% | 14.7hPa | 2.6V | 08:30:00 | 02:17:08 | 00:00:00 | |
| DL1XH-west | 2026-09-04 12:59:54 | 59.04291 | 6.91746 | 97° | 15km/h | 28870m | 5.6m/s | -46.8°C | 0% | 14.7hPa | 2.7V | 18:12:15 | 02:17:11 | 00:00:00 | |
| DL1XH1-15 | 2026-09-04 12:59:46 | 59.04283 | 6.91669 | 73° | 22km/h | 28799m | 5.7m/s | -47°C | 2.9% | 14.8hPa | 2.7V | 08:30:00 | 02:16:58 | 00:00:00 | |
| DL1XH-west | 2026-09-04 12:59:43 | 59.04288 | 6.91687 | 52° | 22km/h | 28810m | 4.5m/s | -47°C | 0% | 14.8hPa | 2.6V | 18:12:15 | 02:17:00 | 00:00:00 | |
| DJ2DS-15 | 2026-09-04 12:59:40 | 59.04282 | 6.91658 | 82° | 20km/h | 28794m | 4.7m/s | -47.1°C | 0.7% | 14.9hPa | 2.7V | 00:00:00 | 00:00:00 | 00:00:00 | |
| DL1XH1-15 | 2026-09-04 12:59:36 | 59.04272 | 6.91583 | 42° | 15km/h | 28746m | 6.1m/s | -47.6°C | 3% | 15hPa | 2.7V | 08:30:00 | 02:16:48 | 00:00:00 | |
| DL1XH-west | 2026-09-04 12:59:34 | 59.04274 | 6.91588 | 64° | 15km/h | 28752m | 6m/s | -47.5°C | 0% | 15hPa | 2.7V | 18:12:15 | 02:16:49 | 00:00:00 | |
| DL1XH1-15 | 2026-09-04 12:59:26 | 59.04252 | 6.91542 | 72° | 11km/h | 28691m | 6.3m/s | -48°C | 3.1% | 15.1hPa | 2.7V | 08:30:00 | 02:16:38 | 00:00:00 | |
| DL1XH-west | 2026-09-04 12:59:22 | 59.04252 | 6.91542 | 72° | 11km/h | 28691m | 6.3m/s | -48°C | 0% | 15.1hPa | 2.7V | 18:12:15 | 02:16:38 | 00:00:00 | |
| DL1XH1-15 | 2026-09-04 12:59:16 | 59.04241 | 6.91527 | 339° | 4km/h | 28635m | 5.1m/s | -48.5°C | 3.1% | 15.2hPa | 2.6V | 08:30:00 | 02:16:28 | 00:00:00 | |
| DL1XH-west | 2026-09-04 12:59:11 | 59.04240 | 6.91527 | 48° | 2km/h | 28630m | 4.4m/s | -48.5°C | 0% | 15.2hPa | 2.7V | 18:12:15 | 02:16:27 | 00:00:00 | |
| DL1XH1-15 | 2026-09-04 12:59:06 | 59.04250 | 6.91486 | 120° | 4km/h | 28580m | 5.2m/s | -48.7°C | 3.2% | 15.4hPa | 2.6V | 08:30:00 | 02:16:18 | 00:00:00 | |
| DL1XH-west | 2026-09-04 12:58:59 | 59.04251 | 6.91485 | 276° | 2km/h | 28569m | 5.3m/s | -48.8°C | 0.1% | 15.4hPa | 2.7V | 18:12:15 | 02:16:16 | 00:00:00 | |
| DL1XH1-15 | 2026-09-04 12:58:56 | 59.04259 | 6.91458 | 109° | 18km/h | 28524m | 6.2m/s | -49°C | 3.2% | 15.5hPa | 2.7V | 08:30:00 | 02:16:08 | 00:00:00 | |
| DL1XH-west | 2026-09-04 12:58:49 | 59.04261 | 6.91444 | 102° | 13km/h | 28514m | 4.6m/s | -49°C | 0.1% | 15.5hPa | 2.6V | 18:12:15 | 02:16:06 | 00:00:00 | |
| DL1XH1-15 | 2026-09-04 12:58:46 | 59.04273 | 6.91433 | 170° | 2km/h | 28470m | 5.1m/s | -49°C | 3.3% | 15.6hPa | 2.7V | 08:30:00 | 02:15:58 | 00:00:00 | |
| DL1XH-west | 2026-09-04 12:58:38 | 59.04278 | 6.91432 | 181° | 7km/h | 28453m | 4.7m/s | -49°C | 0.1% | 15.7hPa | 2.7V | 18:12:15 | 02:15:55 | 00:00:00 | |
| DL1XH1-15 | 2026-09-04 12:58:36 | 59.04281 | 6.91443 | 210° | 5km/h | 28414m | 4.8m/s | -49.1°C | 3.3% | 15.8hPa | 2.7V | 08:30:00 | 02:15:48 | 00:00:00 | |
| DL1XH-west | 2026-09-04 12:58:28 | 59.04282 | 6.91445 | 13° | 2km/h | 28398m | 5m/s | -49.1°C | 0.2% | 15.8hPa | 2.6V | 18:12:15 | 02:15:45 | 00:00:00 | |
| DL1XH1-15 | 2026-09-04 12:58:26 | 59.04289 | 6.91437 | 145° | 5km/h | 28359m | 3.7m/s | -48.9°C | 3.3% | 15.9hPa | 2.7V | 08:30:00 | 02:15:38 | 00:00:00 | |
| DL1XH-west | 2026-09-04 12:58:18 | 59.04301 | 6.91434 | 184° | 16km/h | 28338m | 4.9m/s | -48.9°C | 0.1% | 15.9hPa | 2.6V | 18:12:15 | 02:15:34 | 00:00:00 | |
| DL1XH-west | 2026-09-04 12:58:06 | 59.04332 | 6.91438 | 192° | 16km/h | 28278m | 4.6m/s | -48.7°C | 0.2% | 16.1hPa | 2.6V | 18:12:15 | 02:15:23 | 00:00:00 | |
| DL1XH1-15 | 2026-09-04 12:58:06 | 59.04356 | 6.91437 | 161° | 18km/h | 28251m | 6.5m/s | -48.6°C | 3.3% | 16.2hPa | 2.7V | 08:30:00 | 02:15:18 | 00:00:00 | |
| DL1XH1-15 | 2026-09-04 12:57:56 | 59.04396 | 6.91405 | 183° | 22km/h | 28194m | 6.5m/s | -48.3°C | 3.2% | 16.3hPa | 2.7V | 08:30:00 | 02:15:08 | 00:00:00 | |
| DL1XH-west | 2026-09-04 12:57:56 | 59.04378 | 6.91409 | 159° | 18km/h | 28217m | 5.8m/s | -48.4°C | 0.1% | 16.2hPa | 2.7V | 18:12:15 | 02:15:12 | 00:00:00 | |
| DL1XH-west | 2026-09-04 12:57:45 | 59.04430 | 6.91390 | 131° | 16km/h | 28155m | 5.6m/s | -48.1°C | 0.1% | 16.4hPa | 2.7V | 18:12:15 | 02:15:01 | 00:00:00 | |
| DL1XH-west | 2026-09-04 12:57:34 | 59.04477 | 6.91334 | 159° | 31km/h | 28099m | 5.1m/s | -47.8°C | 0.1% | 16.6hPa | 2.7V | 18:12:15 | 02:14:51 | 00:00:00 | |
| DL1XH1-15 | 2026-09-04 12:57:29 | 59.04522 | 6.91269 | 141° | 27km/h | 28054m | 5m/s | -47.8°C | 3.1% | 16.7hPa | 2.6V | 08:30:00 | 02:14:43 | 00:00:00 | |
| DL1XH-west | 2026-09-04 12:57:23 | 59.04535 | 6.91246 | 139° | 22km/h | 28036m | 5.1m/s | -47.8°C | 0% | 16.7hPa | 2.7V | 18:12:15 | 02:14:40 | 00:00:00 | |
| DL1XH1-15 | 2026-09-04 12:57:17 | 59.04590 | 6.91166 | 136° | 18km/h | 27971m | 6.6m/s | -48°C | 3.2% | 16.9hPa | 2.6V | 08:30:00 | 02:14:29 | 00:00:00 | |
| DL1XH-west | 2026-09-04 12:57:09 | 59.04598 | 6.91151 | 139° | 15km/h | 27955m | 5.9m/s | -48.1°C | 0.1% | 16.9hPa | 2.7V | 18:12:15 | 02:14:26 | 00:00:00 | |
| DL1XH-west | 2026-09-04 12:56:59 | 59.04642 | 6.91088 | 150° | 18km/h | 27896m | 6.1m/s | -47.9°C | 0.1% | 17.1hPa | 2.7V | 18:12:15 | 02:14:16 | 00:00:00 | |
| DJ2DS-15 | 2026-09-04 12:56:40 | 59.04693 | 6.91020 | 167° | 5km/h | 27783m | 6.2m/s | -47.9°C | 0.8% | 17.4hPa | 2.6V | 00:00:00 | 00:00:00 | 00:00:00 | |
| DL1XH1-15 | 2026-09-04 12:55:59 | 59.04766 | 6.90764 | 100° | 29km/h | 27531m | 5.5m/s | -47.4°C | 3% | 18.1hPa | 2.6V | 08:30:00 | 02:13:14 | 00:00:00 | |
| DL1XH-west | 2026-09-04 12:55:47 | 59.04782 | 6.90659 | 113° | 22km/h | 27473m | 6.9m/s | -47.7°C | 0% | 18.2hPa | 2.7V | 18:12:15 | 02:13:04 | 00:00:00 | |
| DL1XH1-15 | 2026-09-04 12:55:46 | 59.04790 | 6.90604 | 95° | 18km/h | 27444m | 5.3m/s | -47.8°C | 3.2% | 18.3hPa | 2.7V | 08:30:00 | 02:12:59 | 00:00:00 | |
| DL1XH-west | 2026-09-04 12:55:36 | 59.04793 | 6.90558 | 93° | 11km/h | 27410m | 6.1m/s | -47.8°C | 0% | 18.4hPa | 2.7V | 18:12:15 | 02:12:53 | 00:00:00 | |
| DL1XH1-15 | 2026-09-04 12:55:35 | 59.04796 | 6.90532 | 112° | 18km/h | 27388m | 4.3m/s | -47.8°C | 3.1% | 18.5hPa | 2.6V | 08:30:00 | 02:12:49 | 00:00:00 | |
| DL1XH-west | 2026-09-04 12:55:25 | 59.04805 | 6.90486 | 109° | 16km/h | 27349m | 4.4m/s | -47.8°C | 0% | 18.6hPa | 2.7V | 18:12:15 | 02:12:42 | 00:00:00 | |
| DL1XH1-15 | 2026-09-04 12:55:22 | 59.04805 | 6.90425 | 95° | 18km/h | 27304m | 5.1m/s | -47.9°C | 3.1% | 18.7hPa | 2.7V | 08:30:00 | 02:12:34 | 00:00:00 | |
| DL1XH-west | 2026-09-04 12:55:15 | 59.04805 | 6.90408 | 86° | 16km/h | 27293m | 5.2m/s | -48°C | 0% | 18.7hPa | 2.7V | 18:12:15 | 02:12:32 | 00:00:00 | |
| DL1XH1-15 | 2026-09-04 12:55:10 | 59.04808 | 6.90360 | 97° | 13km/h | 27242m | 4.5m/s | -48.2°C | 3.1% | 18.9hPa | 2.7V | 08:30:00 | 02:12:23 | 00:00:00 | |
| DL1XH-west | 2026-09-04 12:55:04 | 59.04808 | 6.90346 | 79° | 15km/h | 27231m | 6.3m/s | -48.3°C | 0.1% | 18.9hPa | 2.7V | 18:12:15 | 02:12:21 | 00:00:00 | |
| DL1XH1-15 | 2026-09-04 12:55:00 | 59.04798 | 6.90293 | 31° | 11km/h | 27188m | 5.3m/s | -48.7°C | 3.3% | 19hPa | 2.6V | 08:30:00 | 02:12:13 | 00:00:00 | |
| DL1XH-west | 2026-09-04 12:54:53 | 59.04790 | 6.90282 | 47° | 15km/h | 27171m | 5m/s | -48.7°C | 0.1% | 19.1hPa | 2.7V | 18:12:15 | 02:12:10 | 00:00:00 | |
| DJ2DS-15 | 2026-09-04 12:54:52 | 59.04787 | 6.90277 | 49° | 16km/h | 27166m | 4.7m/s | -48.7°C | 0.8% | 19.1hPa | 2.7V | 00:00:00 | 00:00:00 | 00:00:00 | |
| DL1XH1-15 | 2026-09-04 12:54:48 | 59.04769 | 6.90231 | 76° | 16km/h | 27134m | 4.7m/s | -48.6°C | 3.3% | 19.2hPa | 2.7V | 08:30:00 | 02:12:03 | 00:00:00 | |
| DL1XH-west | 2026-09-04 12:54:43 | 59.04768 | 6.90218 | 19° | 2km/h | 27118m | 5.4m/s | -48.6°C | 0.2% | 19.2hPa | 2.6V | 18:12:15 | 02:12:00 | 00:00:00 | |
| DL1XH1-15 | 2026-09-04 12:54:40 | 59.04762 | 6.90217 | 30° | 7km/h | 27079m | 4.3m/s | -48.3°C | 3.2% | 19.3hPa | 2.6V | 08:30:00 | 02:11:53 | 00:00:00 | |
| DL1XH-west | 2026-09-04 12:54:32 | 59.04761 | 6.90206 | 137° | 9km/h | 27059m | 5.6m/s | -48.3°C | 0.1% | 19.4hPa | 2.7V | 18:12:15 | 02:11:49 | 00:00:00 | |
| DL1XH1-15 | 2026-09-04 12:54:28 | 59.04771 | 6.90217 | 233° | 15km/h | 27026m | 5.2m/s | -48°C | 3.2% | 19.5hPa | 2.7V | 08:30:00 | 02:11:43 | 00:00:00 | |
| DL1XH-west | 2026-09-04 12:54:22 | 59.04774 | 6.90229 | 57° | 2km/h | 27005m | 4.4m/s | -47.9°C | 0.1% | 19.6hPa | 2.6V | 18:12:15 | 02:11:39 | 00:00:00 | |
| DL1XH-west | 2026-09-04 12:54:11 | 59.04806 | 6.90235 | 222° | 16km/h | 26946m | 5.9m/s | -47.7°C | 0% | 19.7hPa | 2.6V | 18:12:15 | 02:11:28 | 00:00:00 | |
| DL1XH-west | 2026-09-04 12:54:00 | 59.04834 | 6.90230 | 159° | 20km/h | 26888m | 6.4m/s | -47.7°C | 0.1% | 19.9hPa | 2.7V | 18:12:15 | 02:11:17 | 00:00:00 | |
| DL1XH1-15 | 2026-09-04 12:54:00 | 59.04851 | 6.90219 | 179° | 13km/h | 26866m | 5m/s | -47.5°C | 3.2% | 20hPa | 2.6V | 08:30:00 | 02:11:13 | 00:00:00 | |
| DL1XH1-15 | 2026-09-04 12:53:51 | 59.04891 | 6.90173 | 135° | 22km/h | 26814m | 5.5m/s | -47.3°C | 3.1% | 20.1hPa | 2.6V | 08:30:00 | 02:11:03 | 00:00:00 | |
| DL1XH-west | 2026-09-04 12:53:50 | 59.04874 | 6.90198 | 144° | 24km/h | 26836m | 5.9m/s | -47.4°C | 0% | 20.1hPa | 2.7V | 18:12:15 | 02:11:07 | 00:00:00 | |
| DL1XH1-15 | 2026-09-04 12:53:41 | 59.04913 | 6.90130 | 130° | 16km/h | 26760m | 4.8m/s | -47.2°C | 3% | 20.3hPa | 2.7V | 08:30:00 | 02:10:53 | 00:00:00 | |
| DL1XH-west | 2026-09-04 12:53:39 | 59.04908 | 6.90147 | 123° | 11km/h | 26775m | 4.8m/s | -47.2°C | 0% | 20.3hPa | 2.6V | 18:12:15 | 02:10:56 | 00:00:00 | |
| DL1XH1-15 | 2026-09-04 12:53:30 | 59.04936 | 6.90057 | 97° | 15km/h | 26705m | 5.8m/s | -47.2°C | 3% | 20.5hPa | 2.6V | 08:30:00 | 02:10:43 | 00:00:00 | |
| DL1XH-west | 2026-09-04 12:53:29 | 59.04933 | 6.90073 | 129° | 13km/h | 26721m | 4.3m/s | -47.1°C | 0% | 20.4hPa | 2.7V | 18:12:15 | 02:10:46 | 00:00:00 | |
| DL1XH1-15 | 2026-09-04 12:53:20 | 59.04951 | 6.89960 | 113° | 16km/h | 26645m | 4.7m/s | -47.6°C | 3.1% | 20.7hPa | 2.7V | 08:30:00 | 02:10:32 | 00:00:00 | |
| DL1XH-west | 2026-09-04 12:53:18 | 59.04946 | 6.89983 | 112° | 20km/h | 26661m | 5.8m/s | -47.5°C | 0% | 20.6hPa | 2.6V | 18:12:15 | 02:10:35 | 00:00:00 | |
| DL1XH-west | 2026-09-04 12:53:08 | 59.04960 | 6.89873 | 105° | 29km/h | 26608m | 4.5m/s | -47.6°C | 0.1% | 20.8hPa | 2.7V | 18:12:15 | 02:10:25 | 00:00:00 | |
| DL1XH-west | 2026-09-04 12:52:51 | 59.04978 | 6.89597 | 85° | 29km/h | 26506m | 5.4m/s | -47.3°C | 0% | 21.1hPa | 2.6V | 18:12:15 | 02:10:07 | 00:00:00 | |
| DL1XH1-15 | 2026-09-04 12:52:50 | 59.04979 | 6.89537 | 98° | 35km/h | 26483m | 5.7m/s | -47.4°C | 3% | 21.2hPa | 2.7V | 08:30:00 | 02:10:03 | 00:00:00 | |
| DL1XH1-15 | 2026-09-04 12:52:40 | 59.04985 | 6.89384 | 81° | 26km/h | 26427m | 5.4m/s | -47.5°C | 3% | 21.4hPa | 2.6V | 08:30:00 | 02:09:53 | 00:00:00 | |
| DL1XH-west | 2026-09-04 12:52:39 | 59.04989 | 6.89429 | 83° | 35km/h | 26445m | 5.1m/s | -47.5°C | 0% | 21.3hPa | 2.7V | 18:12:15 | 02:09:56 | 00:00:00 | |
| DL1XH1-15 | 2026-09-04 12:52:31 | 59.04987 | 6.89239 | 87° | 37km/h | 26370m | 4.7m/s | -47.9°C | 3.1% | 21.6hPa | 2.7V | 08:30:00 | 02:09:43 | 00:00:00 | |
| DL1XH-west | 2026-09-04 12:52:29 | 59.04985 | 6.89289 | 100° | 31km/h | 26387m | 4.4m/s | -47.8°C | 0% | 21.5hPa | 2.6V | 18:12:15 | 02:09:46 | 00:00:00 | |
| DL1XH1-15 | 2026-09-04 12:52:20 | 59.04975 | 6.89128 | 81° | 22km/h | 26313m | 5.2m/s | -48.3°C | 3.2% | 21.7hPa | 2.6V | 08:30:00 | 02:09:33 | 00:00:00 | |
| DL1XH-west | 2026-09-04 12:52:18 | 59.04977 | 6.89147 | 69° | 20km/h | 26325m | 5.5m/s | -48.4°C | 0.1% | 21.7hPa | 2.7V | 18:12:15 | 02:09:35 | 00:00:00 | |
| DL1XH1-15 | 2026-09-04 12:52:10 | 59.04977 | 6.88973 | 74° | 24km/h | 26255m | 5.8m/s | -48.3°C | 3.2% | 21.9hPa | 2.7V | 08:30:00 | 02:09:23 | 00:00:00 | |
| DL1XH-west | 2026-09-04 12:52:08 | 59.04979 | 6.88998 | 89° | 27km/h | 26267m | 4.9m/s | -48.3°C | 0.1% | 21.9hPa | 2.6V | 18:12:15 | 02:09:25 | 00:00:00 | |
| DL1XH1-15 | 2026-09-04 12:52:00 | 59.04974 | 6.88833 | 101° | 37km/h | 26197m | 4.2m/s | -48.3°C | 3.1% | 22.1hPa | 2.6V | 08:30:00 | 02:09:13 | 00:00:00 | |
| DL1XH-west | 2026-09-04 12:51:58 | 59.04970 | 6.88869 | 99° | 38km/h | 26207m | 6.5m/s | -48.3°C | 0% | 22.1hPa | 2.7V | 18:12:15 | 02:09:15 | 00:00:00 | |
| DL1XH1-15 | 2026-09-04 12:51:50 | 59.04964 | 6.88694 | 76° | 33km/h | 26139m | 5.4m/s | -48.8°C | 3.2% | 22.3hPa | 2.7V | 08:30:00 | 02:09:03 | 00:00:00 | |
| DL1XH-west | 2026-09-04 12:51:47 | 59.04966 | 6.88709 | 77° | 31km/h | 26145m | 5.5m/s | -48.7°C | 0.1% | 22.3hPa | 2.6V | 18:12:15 | 02:09:04 | 00:00:00 | |
| DL1XH1-15 | 2026-09-04 12:51:38 | 59.04948 | 6.88528 | 80° | 31km/h | 26080m | 6.6m/s | -49°C | 3.3% | 22.5hPa | 2.7V | 08:30:00 | 02:08:53 | 00:00:00 | |
| DL1XH-west | 2026-09-04 12:51:37 | 59.04948 | 6.88528 | 81° | 33km/h | 26080m | 6.6m/s | -49°C | 0.2% | 22.5hPa | 2.7V | 18:12:15 | 02:08:53 | 00:00:00 | |
| DL1XH1-15 | 2026-09-04 12:51:30 | 59.04937 | 6.88359 | 76° | 31km/h | 26022m | 5.1m/s | -49.3°C | 3.3% | 22.7hPa | 2.6V | 08:30:00 | 02:08:43 | 00:00:00 | |
| DL1XH-west | 2026-09-04 12:51:26 | 59.04937 | 6.88359 | 77° | 31km/h | 26022m | 5.1m/s | -49.3°C | 0.1% | 22.8hPa | 2.6V | 18:12:15 | 02:08:43 | 00:00:00 | |
| DL1XH1-15 | 2026-09-04 12:51:18 | 59.04916 | 6.88227 | 80° | 37km/h | 25964m | 5.4m/s | -49.6°C | 0% | 22.9hPa | 2.7V | 08:30:00 | 02:08:33 | 00:00:00 | |
| DL1XH-west | 2026-09-04 12:51:15 | 59.04914 | 6.88210 | 80° | 35km/h | 25958m | 6.4m/s | -49.6°C | 0.2% | 22.9hPa | 2.7V | 18:12:15 | 02:08:32 | 00:00:00 | |
| DL1XH1-15 | 2026-09-04 12:51:08 | 59.04894 | 6.88106 | 75° | 18km/h | 25906m | 4.9m/s | 0°C | 0% | 0hPa | 2.6V | 08:30:00 | 02:08:23 | 00:00:00 | |
| DL1XH-west | 2026-09-04 12:51:05 | 59.04891 | 6.88087 | 70° | 26km/h | 25894m | 5.4m/s | -49.5°C | 0.2% | 23.2hPa | 2.7V | 18:12:15 | 02:08:21 | 00:00:00 | |
| DL1XH1-15 | 2026-09-04 12:51:00 | 59.04881 | 6.87996 | 72° | 26km/h | 25850m | 4.9m/s | 0°C | 0% | 0hPa | 2.7V | 00:00:00 | 02:08:13 | 00:00:00 | |
| DL1XH-west | 2026-09-04 12:50:55 | 59.04878 | 6.87973 | 83° | 24km/h | 25839m | 6.7m/s | -49.4°C | 0.2% | 0hPa | 2.7V | 18:12:15 | 02:08:11 | 00:00:00 | |
| DL1XH1-15 | 2026-09-04 12:50:50 | 59.04872 | 6.87891 | 87° | 15km/h | 25793m | 4.4m/s | 0°C | 0% | 0hPa | 2.6V | 00:00:00 | 02:08:03 | 00:00:00 | |
| DL1XH-west | 2026-09-04 12:50:43 | 59.04869 | 6.87868 | 68° | 20km/h | 25776m | 5.2m/s | -49.6°C | 0.3% | 0hPa | 2.7V | 18:12:15 | 02:08:00 | 00:00:00 | |
| DL1XH1-15 | 2026-09-04 12:50:38 | 59.04871 | 6.87778 | 97° | 27km/h | 25736m | 4.9m/s | 0°C | 0% | 0hPa | 2.7V | 00:00:00 | 02:07:53 | 00:00:00 | |
| DL1XH-west | 2026-09-04 12:50:33 | 59.04874 | 6.87740 | 97° | 13km/h | 25714m | 5.6m/s | -49.3°C | 0.3% | 0hPa | 2.6V | 18:12:15 | 02:07:49 | 00:00:00 | |
| DL1XH-west | 2026-09-04 12:50:15 | 59.04882 | 6.87605 | 79° | 15km/h | 25618m | 5.6m/s | 0°C | 0% | 0hPa | 2.7V | 18:12:15 | 02:07:32 | 00:00:00 | |
| DL1XH-west | 2026-09-04 12:49:52 | 59.04850 | 6.87346 | 80° | 27km/h | 25486m | 4.8m/s | 0°C | 0% | 0hPa | 2.7V | 18:12:15 | 02:07:08 | 00:00:00 | |
| DL1XH-west | 2026-09-04 12:49:38 | 59.04832 | 6.87183 | 74° | 31km/h | 25417m | 6.1m/s | 0°C | 0% | 0hPa | 2.7V | 18:12:15 | 02:06:55 | 00:00:00 | |
| DL1XH-west | 2026-09-04 12:49:23 | 59.04792 | 6.86944 | 70° | 27km/h | 25339m | 5.4m/s | 0°C | 0% | 0hPa | 2.7V | 18:12:15 | 02:06:40 | 00:00:00 | |
| DL1XH-west | 2026-09-04 12:49:08 | 59.04747 | 6.86749 | 64° | 20km/h | 25260m | 5.4m/s | 0°C | 0% | 0hPa | 2.6V | 18:12:15 | 02:06:25 | 00:00:00 | |
| DL1XH-west | 2026-09-04 12:48:49 | 59.04694 | 6.86607 | 27° | 16km/h | 25160m | 6m/s | 0°C | 0% | 0hPa | 2.7V | 18:12:15 | 02:06:06 | 00:00:00 | |
| DL1XH-west | 2026-09-04 12:48:20 | 59.04651 | 6.86547 | 319° | 11km/h | 25007m | 4.6m/s | 0°C | 0% | 0hPa | 2.6V | 18:12:15 | 02:05:36 | 00:00:00 |